sensor_id;sensor_type;location;lat;lon;timestamp;temperature;humidity
3408;DHT22;1717;50.240;8.406;2022-11-15T00:00:29;11.90;99.90
3408;DHT22;1717;50.240;8.406;2022-11-15T00:02:56;11.90;99.90
3408;DHT22;1717;50.240;8.406;2022-11-15T00:05:23;11.90;99.90
3408;DHT22;1717;50.240;8.406;2022-11-15T00:07:50;11.90;99.90
3408;DHT22;1717;50.240;8.406;2022-11-15T00:10:17;12.00;99.90
3408;DHT22;1717;50.240;8.406;2022-11-15T00:12:44;12.00;99.90
3408;DHT22;1717;50.240;8.406;2022-11-15T00:15:12;12.00;99.90
3408;DHT22;1717;50.240;8.406;2022-11-15T00:17:39;12.00;99.90
3408;DHT22;1717;50.240;8.406;2022-11-15T00:20:07;12.00;99.90
3408;DHT22;1717;50.240;8.406;2022-11-15T00:22:34;12.00;99.90
3408;DHT22;1717;50.240;8.406;2022-11-15T00:25:00;12.00;99.90
3408;DHT22;1717;50.240;8.406;2022-11-15T00:27:28;12.00;99.90
3408;DHT22;1717;50.240;8.406;2022-11-15T00:29:55;12.00;99.90
3408;DHT22;1717;50.240;8.406;2022-11-15T00:32:23;12.00;99.90
3408;DHT22;1717;50.240;8.406;2022-11-15T00:34:50;12.10;99.90
3408;DHT22;1717;50.240;8.406;2022-11-15T00:37:17;12.00;99.90
3408;DHT22;1717;50.240;8.406;2022-11-15T00:39:44;12.00;99.90
3408;DHT22;1717;50.240;8.406;2022-11-15T00:42:11;12.00;99.90
3408;DHT22;1717;50.240;8.406;2022-11-15T00:44:38;12.00;99.90
3408;DHT22;1717;50.240;8.406;2022-11-15T00:47:04;12.00;99.90
3408;DHT22;1717;50.240;8.406;2022-11-15T00:49:33;12.00;99.90
3408;DHT22;1717;50.240;8.406;2022-11-15T00:51:59;12.00;99.90
3408;DHT22;1717;50.240;8.406;2022-11-15T00:54:26;12.00;99.90
3408;DHT22;1717;50.240;8.406;2022-11-15T00:56:53;12.00;99.90
3408;DHT22;1717;50.240;8.406;2022-11-15T00:59:20;12.00;99.90
3408;DHT22;1717;50.240;8.406;2022-11-15T01:01:47;12.20;99.90
3408;DHT22;1717;50.240;8.406;2022-11-15T01:04:14;12.00;99.90
3408;DHT22;1717;50.240;8.406;2022-11-15T01:06:42;12.10;99.90
3408;DHT22;1717;50.240;8.406;2022-11-15T01:09:09;12.10;99.90
3408;DHT22;1717;50.240;8.406;2022-11-15T01:11:36;12.10;99.90
3408;DHT22;1717;50.240;8.406;2022-11-15T01:14:03;12.10;99.90
3408;DHT22;1717;50.240;8.406;2022-11-15T01:16:29;12.10;99.90
3408;DHT22;1717;50.240;8.406;2022-11-15T01:18:58;12.10;99.90
3408;DHT22;1717;50.240;8.406;2022-11-15T01:21:25;12.10;99.90
3408;DHT22;1717;50.240;8.406;2022-11-15T01:23:54;12.10;99.90
3408;DHT22;1717;50.240;8.406;2022-11-15T01:26:22;12.10;99.90
3408;DHT22;1717;50.240;8.406;2022-11-15T01:28:50;12.10;99.90
3408;DHT22;1717;50.240;8.406;2022-11-15T01:31:19;12.10;99.90
3408;DHT22;1717;50.240;8.406;2022-11-15T01:33:47;12.10;99.90
3408;DHT22;1717;50.240;8.406;2022-11-15T01:36:15;12.10;99.90
3408;DHT22;1717;50.240;8.406;2022-11-15T01:38:43;12.10;99.90
3408;DHT22;1717;50.240;8.406;2022-11-15T01:41:16;12.00;99.90
3408;DHT22;1717;50.240;8.406;2022-11-15T01:43:44;12.00;99.90
3408;DHT22;1717;50.240;8.406;2022-11-15T01:46:23;12.00;99.90
3408;DHT22;1717;50.240;8.406;2022-11-15T01:48:53;12.00;99.90
3408;DHT22;1717;50.240;8.406;2022-11-15T01:51:22;12.00;99.90
3408;DHT22;1717;50.240;8.406;2022-11-15T01:53:54;12.00;99.90
3408;DHT22;1717;50.240;8.406;2022-11-15T01:56:24;12.00;99.90
3408;DHT22;1717;50.240;8.406;2022-11-15T01:58:53;12.10;99.90
3408;DHT22;1717;50.240;8.406;2022-11-15T02:01:22;12.10;99.90
3408;DHT22;1717;50.240;8.406;2022-11-15T02:03:53;12.10;99.90
3408;DHT22;1717;50.240;8.406;2022-11-15T02:06:21;12.10;99.90
3408;DHT22;1717;50.240;8.406;2022-11-15T02:08:49;12.10;99.90
3408;DHT22;1717;50.240;8.406;2022-11-15T02:11:16;12.10;99.90
3408;DHT22;1717;50.240;8.406;2022-11-15T02:13:44;12.20;99.90
3408;DHT22;1717;50.240;8.406;2022-11-15T02:16:18;12.10;99.90
3408;DHT22;1717;50.240;8.406;2022-11-15T02:18:53;12.20;99.90
3408;DHT22;1717;50.240;8.406;2022-11-15T02:21:27;12.20;99.90
3408;DHT22;1717;50.240;8.406;2022-11-15T02:27:33;12.20;99.90
3408;DHT22;1717;50.240;8.406;2022-11-15T02:30:20;12.20;99.90
3408;DHT22;1717;50.240;8.406;2022-11-15T02:32:51;12.30;99.90
3408;DHT22;1717;50.240;8.406;2022-11-15T02:35:28;12.30;99.90
3408;DHT22;1717;50.240;8.406;2022-11-15T02:37:58;12.30;99.90
3408;DHT22;1717;50.240;8.406;2022-11-15T02:40:33;12.30;99.90
3408;DHT22;1717;50.240;8.406;2022-11-15T02:43:07;12.40;99.90
3408;DHT22;1717;50.240;8.406;2022-11-15T02:45:58;12.30;99.90
3408;DHT22;1717;50.240;8.406;2022-11-15T02:48:26;12.40;99.90
3408;DHT22;1717;50.240;8.406;2022-11-15T02:50:54;12.30;99.90
3408;DHT22;1717;50.240;8.406;2022-11-15T02:53:24;12.40;99.90
3408;DHT22;1717;50.240;8.406;2022-11-15T02:55:51;12.30;99.90
3408;DHT22;1717;50.240;8.406;2022-11-15T02:58:34;12.30;99.90
3408;DHT22;1717;50.240;8.406;2022-11-15T03:01:08;12.30;99.90
3408;DHT22;1717;50.240;8.406;2022-11-15T03:03:48;12.40;99.90
3408;DHT22;1717;50.240;8.406;2022-11-15T03:06:28;12.30;99.90
3408;DHT22;1717;50.240;8.406;2022-11-15T03:09:04;12.30;99.90
3408;DHT22;1717;50.240;8.406;2022-11-15T03:11:35;12.20;99.90
3408;DHT22;1717;50.240;8.406;2022-11-15T03:14:13;12.20;99.90
3408;DHT22;1717;50.240;8.406;2022-11-15T03:16:49;12.20;99.90
3408;DHT22;1717;50.240;8.406;2022-11-15T03:19:21;12.20;99.90
3408;DHT22;1717;50.240;8.406;2022-11-15T03:21:51;12.20;99.90
3408;DHT22;1717;50.240;8.406;2022-11-15T03:24:20;12.40;99.90
3408;DHT22;1717;50.240;8.406;2022-11-15T03:26:49;12.20;99.90
3408;DHT22;1717;50.240;8.406;2022-11-15T03:29:22;12.20;99.90
3408;DHT22;1717;50.240;8.406;2022-11-15T03:31:55;12.30;99.90
3408;DHT22;1717;50.240;8.406;2022-11-15T03:34:28;12.40;99.90
3408;DHT22;1717;50.240;8.406;2022-11-15T03:36:57;12.20;99.90
3408;DHT22;1717;50.240;8.406;2022-11-15T03:39:24;12.20;99.90
3408;DHT22;1717;50.240;8.406;2022-11-15T03:41:59;12.30;99.90
3408;DHT22;1717;50.240;8.406;2022-11-15T03:44:36;12.40;99.90
3408;DHT22;1717;50.240;8.406;2022-11-15T03:47:11;12.20;99.90
3408;DHT22;1717;50.240;8.406;2022-11-15T03:49:44;12.40;99.90
3408;DHT22;1717;50.240;8.406;2022-11-15T03:52:12;12.20;99.90
3408;DHT22;1717;50.240;8.406;2022-11-15T03:54:49;12.20;99.90
3408;DHT22;1717;50.240;8.406;2022-11-15T03:57:16;12.30;99.90
3408;DHT22;1717;50.240;8.406;2022-11-15T03:59:43;12.10;99.90
3408;DHT22;1717;50.240;8.406;2022-11-15T04:02:12;12.30;99.90
3408;DHT22;1717;50.240;8.406;2022-11-15T04:04:39;12.30;99.90
3408;DHT22;1717;50.240;8.406;2022-11-15T04:07:08;12.30;99.90
3408;DHT22;1717;50.240;8.406;2022-11-15T04:09:35;12.20;99.90
3408;DHT22;1717;50.240;8.406;2022-11-15T04:12:23;12.20;99.90
3408;DHT22;1717;50.240;8.406;2022-11-15T04:14:58;12.20;99.90
3408;DHT22;1717;50.240;8.406;2022-11-15T04:17:37;12.30;99.90
3408;DHT22;1717;50.240;8.406;2022-11-15T04:20:07;12.40;99.90
3408;DHT22;1717;50.240;8.406;2022-11-15T04:22:53;12.30;99.90
3408;DHT22;1717;50.240;8.406;2022-11-15T04:25:37;12.30;99.90
3408;DHT22;1717;50.240;8.406;2022-11-15T04:28:06;12.30;99.90
3408;DHT22;1717;50.240;8.406;2022-11-15T04:30:33;12.40;99.90
3408;DHT22;1717;50.240;8.406;2022-11-15T04:33:02;12.30;99.90
3408;DHT22;1717;50.240;8.406;2022-11-15T04:35:30;12.50;99.90
3408;DHT22;1717;50.240;8.406;2022-11-15T04:37:57;12.30;99.90
3408;DHT22;1717;50.240;8.406;2022-11-15T04:40:23;12.30;99.90
3408;DHT22;1717;50.240;8.406;2022-11-15T04:42:50;12.50;99.90
3408;DHT22;1717;50.240;8.406;2022-11-15T04:45:17;12.40;99.90
3408;DHT22;1717;50.240;8.406;2022-11-15T04:47:45;12.50;99.90
3408;DHT22;1717;50.240;8.406;2022-11-15T04:50:16;12.50;99.90
3408;DHT22;1717;50.240;8.406;2022-11-15T04:52:49;12.40;99.90
3408;DHT22;1717;50.240;8.406;2022-11-15T04:55:16;12.30;99.90
3408;DHT22;1717;50.240;8.406;2022-11-15T04:57:43;12.40;99.90
3408;DHT22;1717;50.240;8.406;2022-11-15T05:00:13;12.40;99.90
3408;DHT22;1717;50.240;8.406;2022-11-15T05:02:40;12.40;99.90
3408;DHT22;1717;50.240;8.406;2022-11-15T05:05:26;12.40;99.90
3408;DHT22;1717;50.240;8.406;2022-11-15T05:07:53;12.60;99.90
3408;DHT22;1717;50.240;8.406;2022-11-15T05:10:21;12.50;99.90
3408;DHT22;1717;50.240;8.406;2022-11-15T05:12:50;12.40;99.90
3408;DHT22;1717;50.240;8.406;2022-11-15T05:15:17;12.60;99.90
3408;DHT22;1717;50.240;8.406;2022-11-15T05:17:44;12.40;99.90
3408;DHT22;1717;50.240;8.406;2022-11-15T05:20:12;12.40;99.90
3408;DHT22;1717;50.240;8.406;2022-11-15T05:22:41;12.40;99.90
3408;DHT22;1717;50.240;8.406;2022-11-15T05:25:08;12.50;99.90
3408;DHT22;1717;50.240;8.406;2022-11-15T05:27:35;12.40;99.90
3408;DHT22;1717;50.240;8.406;2022-11-15T05:30:51;12.40;99.90
3408;DHT22;1717;50.240;8.406;2022-11-15T05:40:49;12.40;99.90
3408;DHT22;1717;50.240;8.406;2022-11-15T05:43:16;12.40;99.90
3408;DHT22;1717;50.240;8.406;2022-11-15T05:45:43;12.40;99.90
3408;DHT22;1717;50.240;8.406;2022-11-15T05:48:10;12.30;99.90
3408;DHT22;1717;50.240;8.406;2022-11-15T05:50:39;12.20;99.90
3408;DHT22;1717;50.240;8.406;2022-11-15T05:53:07;12.20;99.90
3408;DHT22;1717;50.240;8.406;2022-11-15T05:55:34;12.20;99.90
3408;DHT22;1717;50.240;8.406;2022-11-15T05:58:02;12.20;99.90
3408;DHT22;1717;50.240;8.406;2022-11-15T06:00:29;12.10;99.90
3408;DHT22;1717;50.240;8.406;2022-11-15T06:02:56;12.10;99.90
3408;DHT22;1717;50.240;8.406;2022-11-15T06:05:23;12.00;99.90
3408;DHT22;1717;50.240;8.406;2022-11-15T06:07:50;12.00;99.90
3408;DHT22;1717;50.240;8.406;2022-11-15T06:10:17;12.00;99.90
3408;DHT22;1717;50.240;8.406;2022-11-15T06:12:43;11.90;99.90
3408;DHT22;1717;50.240;8.406;2022-11-15T06:15:11;11.90;99.90
3408;DHT22;1717;50.240;8.406;2022-11-15T06:17:38;12.00;99.90
3408;DHT22;1717;50.240;8.406;2022-11-15T06:20:09;12.00;99.90
3408;DHT22;1717;50.240;8.406;2022-11-15T06:22:36;12.00;99.90
3408;DHT22;1717;50.240;8.406;2022-11-15T06:25:03;12.00;99.90
3408;DHT22;1717;50.240;8.406;2022-11-15T06:27:30;12.00;99.90
3408;DHT22;1717;50.240;8.406;2022-11-15T06:29:57;12.00;99.90
3408;DHT22;1717;50.240;8.406;2022-11-15T06:32:25;12.00;99.90
3408;DHT22;1717;50.240;8.406;2022-11-15T06:34:52;12.00;99.90
3408;DHT22;1717;50.240;8.406;2022-11-15T06:37:18;12.00;99.90
3408;DHT22;1717;50.240;8.406;2022-11-15T06:39:45;11.90;99.90
3408;DHT22;1717;50.240;8.406;2022-11-15T06:42:12;11.90;99.90
3408;DHT22;1717;50.240;8.406;2022-11-15T06:44:39;11.90;99.90
3408;DHT22;1717;50.240;8.406;2022-11-15T06:47:06;11.80;99.90
3408;DHT22;1717;50.240;8.406;2022-11-15T06:49:34;11.90;99.90
3408;DHT22;1717;50.240;8.406;2022-11-15T06:52:00;11.80;99.90
3408;DHT22;1717;50.240;8.406;2022-11-15T06:54:27;11.80;99.90
3408;DHT22;1717;50.240;8.406;2022-11-15T06:56:54;11.80;99.90
3408;DHT22;1717;50.240;8.406;2022-11-15T06:59:21;11.80;99.90
3408;DHT22;1717;50.240;8.406;2022-11-15T07:01:49;11.70;99.90
3408;DHT22;1717;50.240;8.406;2022-11-15T07:04:16;11.70;99.90
3408;DHT22;1717;50.240;8.406;2022-11-15T07:06:46;11.70;99.90
3408;DHT22;1717;50.240;8.406;2022-11-15T07:09:13;11.70;99.90
3408;DHT22;1717;50.240;8.406;2022-11-15T07:11:40;11.70;99.90
3408;DHT22;1717;50.240;8.406;2022-11-15T07:14:07;11.70;99.90
3408;DHT22;1717;50.240;8.406;2022-11-15T07:16:34;11.70;99.90
3408;DHT22;1717;50.240;8.406;2022-11-15T07:19:00;11.60;99.90
3408;DHT22;1717;50.240;8.406;2022-11-15T07:21:27;11.70;99.90
3408;DHT22;1717;50.240;8.406;2022-11-15T07:23:56;11.70;99.90
3408;DHT22;1717;50.240;8.406;2022-11-15T07:26:22;11.70;99.90
3408;DHT22;1717;50.240;8.406;2022-11-15T07:28:49;11.80;99.90
3408;DHT22;1717;50.240;8.406;2022-11-15T07:31:16;11.80;99.90
3408;DHT22;1717;50.240;8.406;2022-11-15T07:33:43;11.80;99.90
3408;DHT22;1717;50.240;8.406;2022-11-15T07:36:10;11.90;99.90
3408;DHT22;1717;50.240;8.406;2022-11-15T07:38:37;11.90;99.90
3408;DHT22;1717;50.240;8.406;2022-11-15T07:41:05;12.00;99.90
3408;DHT22;1717;50.240;8.406;2022-11-15T07:43:32;12.00;99.90
3408;DHT22;1717;50.240;8.406;2022-11-15T07:46:04;12.00;99.90
3408;DHT22;1717;50.240;8.406;2022-11-15T07:48:31;12.10;99.90
3408;DHT22;1717;50.240;8.406;2022-11-15T07:50:58;12.20;99.90
3408;DHT22;1717;50.240;8.406;2022-11-15T07:53:25;12.20;99.90
3408;DHT22;1717;50.240;8.406;2022-11-15T07:55:51;12.30;99.90
3408;DHT22;1717;50.240;8.406;2022-11-15T07:58:20;12.40;99.90
3408;DHT22;1717;50.240;8.406;2022-11-15T08:00:47;12.40;99.90
3408;DHT22;1717;50.240;8.406;2022-11-15T08:03:15;12.50;99.90
3408;DHT22;1717;50.240;8.406;2022-11-15T08:05:43;12.60;99.90
3408;DHT22;1717;50.240;8.406;2022-11-15T08:08:16;12.60;99.90
3408;DHT22;1717;50.240;8.406;2022-11-15T08:10:43;12.70;99.90
3408;DHT22;1717;50.240;8.406;2022-11-15T08:13:11;12.70;99.90
3408;DHT22;1717;50.240;8.406;2022-11-15T08:15:39;12.80;99.90
3408;DHT22;1717;50.240;8.406;2022-11-15T08:18:09;12.90;99.90
3408;DHT22;1717;50.240;8.406;2022-11-15T08:20:37;12.90;99.90
3408;DHT22;1717;50.240;8.406;2022-11-15T08:23:05;13.00;99.90
3408;DHT22;1717;50.240;8.406;2022-11-15T08:25:34;13.10;99.90
3408;DHT22;1717;50.240;8.406;2022-11-15T08:28:03;13.20;99.90
3408;DHT22;1717;50.240;8.406;2022-11-15T08:30:31;13.10;99.90
3408;DHT22;1717;50.240;8.406;2022-11-15T08:33:03;13.10;99.90
3408;DHT22;1717;50.240;8.406;2022-11-15T08:35:30;13.20;99.90
3408;DHT22;1717;50.240;8.406;2022-11-15T08:37:57;13.30;99.90
3408;DHT22;1717;50.240;8.406;2022-11-15T08:40:23;13.30;99.90
3408;DHT22;1717;50.240;8.406;2022-11-15T08:42:52;13.30;99.90
3408;DHT22;1717;50.240;8.406;2022-11-15T08:45:20;13.30;99.90
3408;DHT22;1717;50.240;8.406;2022-11-15T08:47:46;13.40;99.90
3408;DHT22;1717;50.240;8.406;2022-11-15T08:50:15;13.40;99.90
3408;DHT22;1717;50.240;8.406;2022-11-15T08:52:42;13.50;99.90
3408;DHT22;1717;50.240;8.406;2022-11-15T08:55:09;13.40;99.90
3408;DHT22;1717;50.240;8.406;2022-11-15T08:57:36;13.50;99.90
3408;DHT22;1717;50.240;8.406;2022-11-15T09:00:03;13.50;99.90
3408;DHT22;1717;50.240;8.406;2022-11-15T09:02:30;13.50;99.90
3408;DHT22;1717;50.240;8.406;2022-11-15T09:04:57;13.40;99.90
3408;DHT22;1717;50.240;8.406;2022-11-15T09:07:25;13.50;99.90
3408;DHT22;1717;50.240;8.406;2022-11-15T09:09:55;13.50;99.90
3408;DHT22;1717;50.240;8.406;2022-11-15T09:12:22;13.50;99.90
3408;DHT22;1717;50.240;8.406;2022-11-15T09:14:49;13.60;99.90
3408;DHT22;1717;50.240;8.406;2022-11-15T09:17:16;13.60;99.90
3408;DHT22;1717;50.240;8.406;2022-11-15T09:19:42;13.60;99.90
3408;DHT22;1717;50.240;8.406;2022-11-15T09:22:09;13.60;99.90
3408;DHT22;1717;50.240;8.406;2022-11-15T09:24:37;13.60;99.90
3408;DHT22;1717;50.240;8.406;2022-11-15T09:27:04;13.60;99.90
3408;DHT22;1717;50.240;8.406;2022-11-15T09:29:31;13.70;99.90
3408;DHT22;1717;50.240;8.406;2022-11-15T09:31:58;13.70;99.90
3408;DHT22;1717;50.240;8.406;2022-11-15T09:34:25;13.70;99.90
3408;DHT22;1717;50.240;8.406;2022-11-15T09:36:51;13.80;99.90
3408;DHT22;1717;50.240;8.406;2022-11-15T09:39:18;13.80;99.90
3408;DHT22;1717;50.240;8.406;2022-11-15T09:44:59;13.80;99.90
3408;DHT22;1717;50.240;8.406;2022-11-15T09:47:40;13.70;99.90
3408;DHT22;1717;50.240;8.406;2022-11-15T09:50:14;13.90;99.90
3408;DHT22;1717;50.240;8.406;2022-11-15T09:52:43;13.90;99.90
3408;DHT22;1717;50.240;8.406;2022-11-15T09:55:12;13.90;99.90
3408;DHT22;1717;50.240;8.406;2022-11-15T09:57:51;13.90;99.90
3408;DHT22;1717;50.240;8.406;2022-11-15T10:00:21;14.00;99.90
3408;DHT22;1717;50.240;8.406;2022-11-15T10:03:08;14.00;99.90
3408;DHT22;1717;50.240;8.406;2022-11-15T10:05:39;14.10;99.90
3408;DHT22;1717;50.240;8.406;2022-11-15T10:08:13;14.10;99.90
3408;DHT22;1717;50.240;8.406;2022-11-15T10:10:45;14.10;99.90
3408;DHT22;1717;50.240;8.406;2022-11-15T10:13:24;14.20;99.90
3408;DHT22;1717;50.240;8.406;2022-11-15T10:15:54;14.30;99.90
3408;DHT22;1717;50.240;8.406;2022-11-15T10:18:28;14.30;99.90
3408;DHT22;1717;50.240;8.406;2022-11-15T10:21:12;14.30;99.90
3408;DHT22;1717;50.240;8.406;2022-11-15T10:23:40;14.40;99.90
3408;DHT22;1717;50.240;8.406;2022-11-15T10:26:11;14.40;99.90
3408;DHT22;1717;50.240;8.406;2022-11-15T10:28:41;14.50;99.90
3408;DHT22;1717;50.240;8.406;2022-11-15T10:31:21;14.50;99.90
3408;DHT22;1717;50.240;8.406;2022-11-15T10:33:49;14.50;99.90
3408;DHT22;1717;50.240;8.406;2022-11-15T10:36:21;14.50;99.90
3408;DHT22;1717;50.240;8.406;2022-11-15T10:38:55;14.50;99.90
3408;DHT22;1717;50.240;8.406;2022-11-15T10:41:30;14.50;99.90
3408;DHT22;1717;50.240;8.406;2022-11-15T10:44:14;14.60;99.90
3408;DHT22;1717;50.240;8.406;2022-11-15T10:46:45;14.60;99.90
3408;DHT22;1717;50.240;8.406;2022-11-15T10:49:16;14.80;99.90
3408;DHT22;1717;50.240;8.406;2022-11-15T10:51:47;14.60;99.90
3408;DHT22;1717;50.240;8.406;2022-11-15T10:54:21;14.60;99.90
3408;DHT22;1717;50.240;8.406;2022-11-15T10:56:51;14.60;99.90
3408;DHT22;1717;50.240;8.406;2022-11-15T10:59:24;14.70;99.90
3408;DHT22;1717;50.240;8.406;2022-11-15T11:01:52;14.70;99.90
3408;DHT22;1717;50.240;8.406;2022-11-15T11:04:19;14.70;99.90
3408;DHT22;1717;50.240;8.406;2022-11-15T11:06:47;14.80;99.90
3408;DHT22;1717;50.240;8.406;2022-11-15T11:09:26;14.80;99.90
3408;DHT22;1717;50.240;8.406;2022-11-15T11:11:54;14.80;99.90
3408;DHT22;1717;50.240;8.406;2022-11-15T11:14:24;14.80;99.90
3408;DHT22;1717;50.240;8.406;2022-11-15T11:16:55;14.80;99.90
3408;DHT22;1717;50.240;8.406;2022-11-15T11:19:45;14.90;99.90
3408;DHT22;1717;50.240;8.406;2022-11-15T11:22:19;14.90;99.90
3408;DHT22;1717;50.240;8.406;2022-11-15T11:24:55;15.00;99.90
3408;DHT22;1717;50.240;8.406;2022-11-15T11:27:33;15.00;99.90
3408;DHT22;1717;50.240;8.406;2022-11-15T11:30:08;14.90;99.90
3408;DHT22;1717;50.240;8.406;2022-11-15T11:33:05;15.00;99.90
3408;DHT22;1717;50.240;8.406;2022-11-15T11:35:39;15.00;99.90
3408;DHT22;1717;50.240;8.406;2022-11-15T11:38:42;15.00;99.90
3408;DHT22;1717;50.240;8.406;2022-11-15T11:41:15;15.10;99.90
3408;DHT22;1717;50.240;8.406;2022-11-15T11:43:51;15.10;99.90
3408;DHT22;1717;50.240;8.406;2022-11-15T11:46:42;15.10;99.90
3408;DHT22;1717;50.240;8.406;2022-11-15T11:49:16;15.10;99.90
3408;DHT22;1717;50.240;8.406;2022-11-15T11:51:51;15.00;99.90
3408;DHT22;1717;50.240;8.406;2022-11-15T11:54:24;15.30;99.90
3408;DHT22;1717;50.240;8.406;2022-11-15T11:56:53;15.20;99.90
3408;DHT22;1717;50.240;8.406;2022-11-15T11:59:31;15.20;99.90
3408;DHT22;1717;50.240;8.406;2022-11-15T12:02:12;15.10;99.90
3408;DHT22;1717;50.240;8.406;2022-11-15T12:04:42;15.10;99.90
3408;DHT22;1717;50.240;8.406;2022-11-15T12:07:15;15.00;99.90
3408;DHT22;1717;50.240;8.406;2022-11-15T12:09:48;15.00;99.90
3408;DHT22;1717;50.240;8.406;2022-11-15T12:12:23;15.00;99.90
3408;DHT22;1717;50.240;8.406;2022-11-15T12:14:53;14.90;99.90
3408;DHT22;1717;50.240;8.406;2022-11-15T12:17:24;15.00;99.90
3408;DHT22;1717;50.240;8.406;2022-11-15T12:19:53;15.20;99.90
3408;DHT22;1717;50.240;8.406;2022-11-15T12:22:26;15.10;99.90
3408;DHT22;1717;50.240;8.406;2022-11-15T12:24:59;15.10;99.90
3408;DHT22;1717;50.240;8.406;2022-11-15T12:27:33;15.00;99.90
3408;DHT22;1717;50.240;8.406;2022-11-15T12:30:07;15.00;99.90
3408;DHT22;1717;50.240;8.406;2022-11-15T12:32:38;15.00;99.90
3408;DHT22;1717;50.240;8.406;2022-11-15T12:35:23;15.00;99.90
3408;DHT22;1717;50.240;8.406;2022-11-15T12:37:51;15.00;99.90
3408;DHT22;1717;50.240;8.406;2022-11-15T12:40:32;15.00;99.90
3408;DHT22;1717;50.240;8.406;2022-11-15T12:43:05;15.10;99.90
3408;DHT22;1717;50.240;8.406;2022-11-15T12:45:34;15.10;99.90
3408;DHT22;1717;50.240;8.406;2022-11-15T12:51:07;15.20;99.90
3408;DHT22;1717;50.240;8.406;2022-11-15T12:53:34;15.20;99.90
3408;DHT22;1717;50.240;8.406;2022-11-15T12:56:21;15.00;99.90
3408;DHT22;1717;50.240;8.406;2022-11-15T12:58:50;15.00;99.90
3408;DHT22;1717;50.240;8.406;2022-11-15T13:01:53;15.00;99.90
3408;DHT22;1717;50.240;8.406;2022-11-15T13:04:24;14.90;99.90
3408;DHT22;1717;50.240;8.406;2022-11-15T13:06:54;15.00;99.90
3408;DHT22;1717;50.240;8.406;2022-11-15T13:12:55;14.80;99.90
3408;DHT22;1717;50.240;8.406;2022-11-15T13:15:38;14.90;99.90
3408;DHT22;1717;50.240;8.406;2022-11-15T13:18:28;14.90;99.90
3408;DHT22;1717;50.240;8.406;2022-11-15T13:20:55;14.90;99.90
3408;DHT22;1717;50.240;8.406;2022-11-15T13:23:24;14.90;99.90
3408;DHT22;1717;50.240;8.406;2022-11-15T13:26:06;14.90;99.90
3408;DHT22;1717;50.240;8.406;2022-11-15T13:28:38;14.90;99.90
3408;DHT22;1717;50.240;8.406;2022-11-15T13:31:26;14.90;99.90
3408;DHT22;1717;50.240;8.406;2022-11-15T13:33:56;14.90;99.90
3408;DHT22;1717;50.240;8.406;2022-11-15T13:36:24;14.90;99.90
3408;DHT22;1717;50.240;8.406;2022-11-15T13:38:59;14.90;99.90
3408;DHT22;1717;50.240;8.406;2022-11-15T13:41:28;14.90;99.90
3408;DHT22;1717;50.240;8.406;2022-11-15T13:43:56;14.90;99.90
3408;DHT22;1717;50.240;8.406;2022-11-15T13:46:24;14.80;99.90
3408;DHT22;1717;50.240;8.406;2022-11-15T13:48:54;14.80;99.90
3408;DHT22;1717;50.240;8.406;2022-11-15T13:51:25;14.80;99.90
3408;DHT22;1717;50.240;8.406;2022-11-15T13:54:00;14.80;99.90
3408;DHT22;1717;50.240;8.406;2022-11-15T13:56:29;14.60;99.90
3408;DHT22;1717;50.240;8.406;2022-11-15T13:58:58;14.60;99.90
3408;DHT22;1717;50.240;8.406;2022-11-15T14:01:27;14.60;99.90
3408;DHT22;1717;50.240;8.406;2022-11-15T14:03:57;14.60;99.90
3408;DHT22;1717;50.240;8.406;2022-11-15T14:06:26;14.60;99.90
3408;DHT22;1717;50.240;8.406;2022-11-15T14:09:35;14.60;99.90
3408;DHT22;1717;50.240;8.406;2022-11-15T14:12:25;14.60;99.90
3408;DHT22;1717;50.240;8.406;2022-11-15T14:14:52;14.50;99.90
3408;DHT22;1717;50.240;8.406;2022-11-15T14:17:21;14.60;99.90
3408;DHT22;1717;50.240;8.406;2022-11-15T14:19:59;14.50;99.90
3408;DHT22;1717;50.240;8.406;2022-11-15T14:22:26;14.50;99.90
3408;DHT22;1717;50.240;8.406;2022-11-15T14:25:15;14.40;99.90
3408;DHT22;1717;50.240;8.406;2022-11-15T14:27:44;14.30;99.90
3408;DHT22;1717;50.240;8.406;2022-11-15T14:30:16;14.30;99.90
3408;DHT22;1717;50.240;8.406;2022-11-15T14:32:45;14.30;99.90
3408;DHT22;1717;50.240;8.406;2022-11-15T14:35:15;14.20;99.90
3408;DHT22;1717;50.240;8.406;2022-11-15T14:37:42;14.10;99.90
3408;DHT22;1717;50.240;8.406;2022-11-15T14:40:14;14.10;99.90
3408;DHT22;1717;50.240;8.406;2022-11-15T14:42:41;14.00;99.90
3408;DHT22;1717;50.240;8.406;2022-11-15T14:45:12;14.00;99.90
3408;DHT22;1717;50.240;8.406;2022-11-15T14:47:40;13.90;99.90
3408;DHT22;1717;50.240;8.406;2022-11-15T14:50:11;13.90;99.90
3408;DHT22;1717;50.240;8.406;2022-11-15T14:52:39;13.90;99.90
3408;DHT22;1717;50.240;8.406;2022-11-15T14:55:14;13.90;99.90
3408;DHT22;1717;50.240;8.406;2022-11-15T14:57:42;13.80;99.90
3408;DHT22;1717;50.240;8.406;2022-11-15T15:00:11;13.80;99.90
3408;DHT22;1717;50.240;8.406;2022-11-15T15:02:38;13.80;99.90
3408;DHT22;1717;50.240;8.406;2022-11-15T15:05:16;13.70;99.90
3408;DHT22;1717;50.240;8.406;2022-11-15T15:07:43;13.70;99.90
3408;DHT22;1717;50.240;8.406;2022-11-15T15:10:10;13.60;99.90
3408;DHT22;1717;50.240;8.406;2022-11-15T15:12:39;13.60;99.90
3408;DHT22;1717;50.240;8.406;2022-11-15T15:15:09;13.70;99.90
3408;DHT22;1717;50.240;8.406;2022-11-15T15:17:38;13.70;99.90
3408;DHT22;1717;50.240;8.406;2022-11-15T15:20:06;13.70;99.90
3408;DHT22;1717;50.240;8.406;2022-11-15T15:22:33;13.60;99.90
3408;DHT22;1717;50.240;8.406;2022-11-15T15:25:00;13.60;99.90
3408;DHT22;1717;50.240;8.406;2022-11-15T15:27:27;13.60;99.90
3408;DHT22;1717;50.240;8.406;2022-11-15T15:29:56;13.60;99.90
3408;DHT22;1717;50.240;8.406;2022-11-15T15:32:24;13.60;99.90
3408;DHT22;1717;50.240;8.406;2022-11-15T15:34:52;13.60;99.90
3408;DHT22;1717;50.240;8.406;2022-11-15T15:37:23;13.60;99.90
3408;DHT22;1717;50.240;8.406;2022-11-15T15:39:50;13.50;99.90
3408;DHT22;1717;50.240;8.406;2022-11-15T15:42:18;13.50;99.90
3408;DHT22;1717;50.240;8.406;2022-11-15T15:44:46;13.50;99.90
3408;DHT22;1717;50.240;8.406;2022-11-15T15:47:19;13.50;99.90
3408;DHT22;1717;50.240;8.406;2022-11-15T15:49:47;13.40;99.90
3408;DHT22;1717;50.240;8.406;2022-11-15T15:52:15;13.40;99.90
3408;DHT22;1717;50.240;8.406;2022-11-15T15:54:43;13.40;99.90
3408;DHT22;1717;50.240;8.406;2022-11-15T15:57:12;13.40;99.90
3408;DHT22;1717;50.240;8.406;2022-11-15T15:59:39;13.30;99.90
3408;DHT22;1717;50.240;8.406;2022-11-15T16:02:09;13.30;99.90
3408;DHT22;1717;50.240;8.406;2022-11-15T16:04:39;13.30;99.90
3408;DHT22;1717;50.240;8.406;2022-11-15T16:07:07;13.30;99.90
3408;DHT22;1717;50.240;8.406;2022-11-15T16:09:38;13.30;99.90
3408;DHT22;1717;50.240;8.406;2022-11-15T16:12:22;13.30;99.90
3408;DHT22;1717;50.240;8.406;2022-11-15T16:14:49;13.30;99.90
3408;DHT22;1717;50.240;8.406;2022-11-15T16:17:19;13.30;99.90
3408;DHT22;1717;50.240;8.406;2022-11-15T16:19:47;13.30;99.90
3408;DHT22;1717;50.240;8.406;2022-11-15T16:22:14;13.30;99.90
3408;DHT22;1717;50.240;8.406;2022-11-15T16:24:41;13.40;99.90
3408;DHT22;1717;50.240;8.406;2022-11-15T16:27:13;13.40;99.90
3408;DHT22;1717;50.240;8.406;2022-11-15T16:29:40;13.40;99.90
3408;DHT22;1717;50.240;8.406;2022-11-15T16:32:07;13.40;99.90
3408;DHT22;1717;50.240;8.406;2022-11-15T16:34:34;13.40;99.90
3408;DHT22;1717;50.240;8.406;2022-11-15T16:37:02;13.40;99.90
3408;DHT22;1717;50.240;8.406;2022-11-15T16:39:29;13.40;99.90
3408;DHT22;1717;50.240;8.406;2022-11-15T16:41:56;13.40;99.90
3408;DHT22;1717;50.240;8.406;2022-11-15T16:44:24;13.40;99.90